Time;durP1;ratioP1;P1;durP2;ratioP2;P2;SDS_P1;SDS_P2;PMS_P1;PMS_P2;Temp;Humidity;BMP_temperature;BMP_pressure;BME280_temperature;BME280_humidity;BME280_pressure;Samples;Min_cycle;Max_cycle;Signal;HPM_P1;HPM_P2
2021/08/18 00:01:45;;;;;;;23.90;13.18;;;;;;;21.29;62.47;98657.22;5051723;28;20128;-63
2021/08/18 00:04:11;;;;;;;23.48;13.32;;;;;;;21.25;62.60;98648.22;5051241;28;20087;-63
2021/08/18 00:06:37;;;;;;;23.25;12.63;;;;;;;21.23;62.61;98655.81;5051601;28;20068;-63
2021/08/18 00:09:04;;;;;;;25.70;12.50;;;;;;;21.20;62.76;98645.69;5051418;28;20076;-62
2021/08/18 00:11:30;;;;;;;23.42;13.05;;;;;;;21.17;62.99;98649.03;5051483;28;20041;-64
2021/08/18 00:13:56;;;;;;;27.08;12.88;;;;;;;21.13;63.29;98653.53;5051411;28;20041;-65
2021/08/18 00:16:24;;;;;;;29.90;13.15;;;;;;;21.09;63.40;98650.69;5049515;28;20481;-63
2021/08/18 00:18:52;;;;;;;23.27;11.82;;;;;;;21.03;63.53;98639.31;5051261;28;20527;-65
2021/08/18 00:21:22;;;;;;;18.35;12.10;;;;;;;21.01;63.59;98644.22;5051466;28;20045;-63
2021/08/18 00:23:48;;;;;;;29.85;14.27;;;;;;;21.00;63.62;98644.53;5051420;28;20410;-63
2021/08/18 00:26:14;;;;;;;23.05;12.82;;;;;;;20.99;63.84;98649.13;5051438;28;20037;-63
2021/08/18 00:28:40;;;;;;;20.77;12.23;;;;;;;20.99;63.54;98649.13;5050976;28;20056;-63
2021/08/18 00:31:06;;;;;;;27.45;12.55;;;;;;;20.98;63.72;98647.56;5049785;28;20041;-62
2021/08/18 00:33:32;;;;;;;25.30;12.32;;;;;;;20.96;63.58;98647.09;5050999;28;20033;-63
2021/08/18 00:35:58;;;;;;;18.95;12.55;;;;;;;20.96;63.92;98649.00;5051325;28;20505;-62
2021/08/18 00:38:24;;;;;;;22.90;12.52;;;;;;;20.97;63.92;98650.56;5051158;28;20502;-63
2021/08/18 00:40:50;;;;;;;22.75;12.73;;;;;;;20.93;64.00;98642.34;5049922;28;20052;-64
2021/08/18 00:43:16;;;;;;;30.45;12.75;;;;;;;20.91;64.02;98641.09;5049802;28;20037;-63
2021/08/18 00:45:42;;;;;;;26.48;12.32;;;;;;;20.90;63.90;98648.38;5049656;28;20048;-63
2021/08/18 00:48:08;;;;;;;23.63;12.63;;;;;;;20.91;64.26;98643.78;5050698;28;20082;-63
2021/08/18 00:50:34;;;;;;;26.73;12.70;;;;;;;20.89;64.11;98636.03;5050836;28;20045;-63
2021/08/18 00:53:00;;;;;;;30.25;13.07;;;;;;;20.83;64.38;98638.13;5050781;28;20079;-62
2021/08/18 00:55:36;;;;;;;25.25;12.77;;;;;;;20.79;64.48;98636.38;5019471;28;20057;-62
2021/08/18 00:58:02;;;;;;;25.77;13.05;;;;;;;20.76;64.61;98637.03;5049780;28;20092;-64
2021/08/18 01:00:29;;;;;;;29.65;12.93;;;;;;;20.74;64.59;98633.88;5051098;28;20132;-63
2021/08/18 01:02:57;;;;;;;23.20;12.82;;;;;;;20.72;64.91;98641.50;5053012;28;20037;-63
2021/08/18 01:05:31;;;;;;;27.33;13.30;;;;;;;20.70;64.85;98641.00;5054860;28;20052;-62
2021/08/18 01:08:00;;;;;;;22.92;12.88;;;;;;;20.69;64.76;98639.44;5054550;28;20442;-62
2021/08/18 01:10:34;;;;;;;21.77;12.50;;;;;;;20.63;65.23;98634.22;5053314;28;20045;-63
2021/08/18 01:13:01;;;;;;;22.73;12.65;;;;;;;20.62;65.30;98646.13;5054655;28;20083;-62
2021/08/18 01:15:28;;;;;;;26.67;13.43;;;;;;;20.61;65.39;98635.66;5054187;28;20618;-62
2021/08/18 01:17:56;;;;;;;23.95;11.80;;;;;;;20.57;65.52;98634.72;5054528;28;20087;-64
2021/08/18 01:20:32;;;;;;;28.13;13.73;;;;;;;20.52;65.52;98632.16;5054571;28;20048;-63
2021/08/18 01:23:00;;;;;;;20.88;12.30;;;;;;;20.49;65.49;98633.59;5054487;28;20098;-63
2021/08/18 01:25:27;;;;;;;23.10;12.88;;;;;;;20.48;65.66;98639.31;5054335;28;20119;-63
2021/08/18 01:27:56;;;;;;;23.85;12.52;;;;;;;20.46;65.74;98631.56;5054339;28;20040;-63
2021/08/18 01:30:23;;;;;;;23.60;13.10;;;;;;;20.46;65.30;98630.75;5054339;28;20070;-63
2021/08/18 01:32:56;;;;;;;24.92;12.30;;;;;;;20.45;65.41;98626.50;5020200;28;20036;-64
2021/08/18 01:35:44;;;;;;;20.55;12.27;;;;;;;20.44;65.21;98628.38;5054035;28;20430;-63
2021/08/18 01:38:12;;;;;;;29.58;12.60;;;;;;;20.42;65.48;98625.25;5052880;28;20044;-63
2021/08/18 01:40:40;;;;;;;25.35;12.93;;;;;;;20.39;65.55;98623.19;5052751;28;20050;-62
2021/08/18 01:43:07;;;;;;;21.52;12.20;;;;;;;20.37;65.69;98628.88;5054055;28;20065;-63
2021/08/18 01:45:37;;;;;;;28.95;12.50;;;;;;;20.34;65.74;98628.72;5054159;28;20071;-62
2021/08/18 01:48:08;;;;;;;23.27;12.60;;;;;;;20.27;66.13;98623.84;5053622;28;20498;-62
2021/08/18 01:50:33;;;;;;;25.23;13.52;;;;;;;20.23;66.32;98614.81;5035821;28;20295;-62
2021/08/18 01:52:59;;;;;;;30.95;13.77;;;;;;;20.18;66.81;98620.38;5053815;28;20115;-62
2021/08/18 01:55:38;;;;;;;24.63;13.68;;;;;;;20.12;67.04;98622.44;5052151;28;20048;-62
2021/08/18 01:58:05;;;;;;;29.83;13.75;;;;;;;20.04;67.40;98611.69;5053140;28;20051;-63
2021/08/18 02:00:31;;;;;;;27.55;14.43;;;;;;;19.99;67.70;98614.53;5052217;28;20052;-63
2021/08/18 02:02:57;;;;;;;22.63;13.27;;;;;;;19.95;68.07;98619.78;5053433;28;20040;-63
2021/08/18 02:05:23;;;;;;;29.83;14.23;;;;;;;19.90;68.20;98628.00;5052342;28;20069;-63
2021/08/18 02:07:51;;;;;;;28.30;13.95;;;;;;;19.87;68.32;98623.25;5052378;28;20044;-62
2021/08/18 02:10:17;;;;;;;30.55;14.68;;;;;;;19.87;67.90;98620.56;5052306;28;20530;-62
2021/08/18 02:12:44;;;;;;;22.27;14.57;;;;;;;19.88;67.97;98625.66;5053132;28;20043;-62
2021/08/18 02:15:20;;;;;;;32.38;14.25;;;;;;;19.93;67.32;98625.47;5051611;28;20065;-61
2021/08/18 02:17:48;;;;;;;30.40;12.90;;;;;;;19.99;66.82;98622.63;5052013;28;20041;-63
2021/08/18 02:20:17;;;;;;;27.25;11.93;;;;;;;20.09;66.25;98630.34;5053316;28;20049;-62
2021/08/18 02:22:43;;;;;;;53.38;15.15;;;;;;;20.16;66.17;98631.47;5035247;28;20033;-63
2021/08/18 02:25:09;;;;;;;50.75;14.23;;;;;;;20.21;66.07;98635.88;5051702;28;20041;-63
2021/08/18 02:27:35;;;;;;;41.60;14.80;;;;;;;20.25;65.79;98631.44;5053089;28;20073;-63
2021/08/18 02:30:03;;;;;;;36.97;14.18;;;;;;;20.33;65.49;98630.66;5052958;28;20535;-63
2021/08/18 02:32:29;;;;;;;32.20;15.35;;;;;;;20.40;65.48;98630.94;5052952;28;20044;-65
2021/08/18 02:34:54;;;;;;;31.17;13.93;;;;;;;20.49;65.08;98632.81;5051734;28;20048;-63
2021/08/18 02:37:23;;;;;;;31.80;13.07;;;;;;;20.59;64.67;98633.31;5052931;28;20064;-64
2021/08/18 02:39:50;;;;;;;29.65;13.68;;;;;;;20.74;64.11;98636.59;5051387;28;20103;-64
2021/08/18 02:42:15;;;;;;;25.73;12.40;;;;;;;20.90;63.36;98634.13;5052933;28;20517;-63
2021/08/18 02:44:42;;;;;;;29.85;12.70;;;;;;;21.08;62.77;98633.72;5052753;28;20036;-62
2021/08/18 02:47:08;;;;;;;25.73;12.32;;;;;;;21.30;61.68;98637.25;5051194;28;20526;-62
2021/08/18 02:49:34;;;;;;;30.58;13.02;;;;;;;21.50;60.49;98636.53;5053009;28;20534;-64
2021/08/18 02:51:59;;;;;;;26.52;12.27;;;;;;;21.71;59.86;98641.91;5052746;28;20128;-63
2021/08/18 02:54:25;;;;;;;18.27;10.80;;;;;;;21.96;59.08;98642.03;5051162;28;20529;-62
2021/08/18 02:56:52;;;;;;;23.65;12.32;;;;;;;22.16;58.05;98638.50;5051097;28;20422;-61
2021/08/18 02:59:24;;;;;;;24.48;12.10;;;;;;;22.39;57.10;98636.25;5051042;28;20394;-63
2021/08/18 03:01:50;;;;;;;30.42;10.95;;;;;;;22.57;56.78;98642.25;5052656;28;20052;-62
2021/08/18 03:04:16;;;;;;;27.95;11.00;;;;;;;22.80;55.98;98647.25;5052450;28;20049;-62
2021/08/18 03:06:41;;;;;;;29.23;12.23;;;;;;;22.99;55.34;98638.59;5034242;28;20085;-65
2021/08/18 03:09:08;;;;;;;29.55;11.52;;;;;;;23.18;54.43;98643.44;5052013;28;20045;-62
2021/08/18 03:11:33;;;;;;;21.17;11.52;;;;;;;23.33;53.68;98648.97;5052473;28;20398;-62
2021/08/18 03:14:00;;;;;;;26.38;11.98;;;;;;;23.52;52.89;98647.56;5052412;28;20041;-63
2021/08/18 03:16:27;;;;;;;27.45;11.85;;;;;;;23.67;52.28;98637.97;5050506;28;20434;-61
2021/08/18 03:18:53;;;;;;;24.55;11.52;;;;;;;23.84;52.30;98642.34;5052121;28;20040;-62
2021/08/18 03:21:19;;;;;;;32.60;12.50;;;;;;;23.95;51.70;98643.44;5051821;28;20045;-62
2021/08/18 03:23:45;;;;;;;26.08;11.20;;;;;;;24.00;51.28;98646.69;5052046;28;20037;-63
2021/08/18 03:26:11;;;;;;;23.58;11.93;;;;;;;24.17;51.05;98650.22;5051621;28;20060;-61
2021/08/18 03:28:37;;;;;;;28.08;12.10;;;;;;;24.29;51.02;98643.97;5050678;28;20410;-63
2021/08/18 03:31:03;;;;;;;24.17;11.02;;;;;;;24.34;50.67;98635.59;5051988;28;20041;-63
2021/08/18 03:33:29;;;;;;;25.10;11.80;;;;;;;24.41;50.14;98643.88;5050757;28;20947;-63
2021/08/18 03:35:54;;;;;;;25.35;12.48;;;;;;;24.50;50.38;98646.47;5051548;28;20140;-62
2021/08/18 03:38:20;;;;;;;29.67;12.63;;;;;;;24.55;49.99;98648.91;5050360;28;20041;-63
2021/08/18 03:40:46;;;;;;;24.90;12.32;;;;;;;24.59;50.12;98642.47;5051903;28;20052;-64
2021/08/18 03:43:15;;;;;;;25.80;12.05;;;;;;;24.64;49.14;98634.06;5051696;28;20051;-63
2021/08/18 03:45:41;;;;;;;22.90;11.25;;;;;;;24.76;48.97;98635.13;5033798;28;20048;-63
2021/08/18 03:48:06;;;;;;;26.08;11.40;;;;;;;24.95;48.62;98645.28;5051627;28;20098;-62
2021/08/18 03:50:33;;;;;;;24.98;11.73;;;;;;;25.09;48.09;98645.59;5051717;28;20092;-63
2021/08/18 03:52:58;;;;;;;21.35;11.35;;;;;;;25.25;48.11;98646.38;5051286;28;20092;-63
2021/08/18 03:55:24;;;;;;;20.38;11.02;;;;;;;25.29;47.16;98651.88;5051717;28;20045;-62
2021/08/18 03:57:50;;;;;;;19.60;10.98;;;;;;;25.38;46.43;98645.16;5051436;28;20403;-64
2021/08/18 04:00:16;;;;;;;18.98;10.93;;;;;;;25.47;46.42;98644.94;5051475;28;20065;-63
2021/08/18 04:02:42;;;;;;;21.15;10.13;;;;;;;25.60;45.76;98657.25;5049835;28;20056;-63
2021/08/18 04:05:11;;;;;;;17.10;10.02;;;;;;;25.66;45.70;98646.13;5051256;28;20450;-64
2021/08/18 04:07:39;;;;;;;21.17;10.82;;;;;;;25.78;45.46;98645.97;5033739;28;20041;-61
2021/08/18 04:10:06;;;;;;;18.10;10.90;;;;;;;25.84;44.58;98647.28;5051154;28;20499;-63
2021/08/18 04:12:52;;;;;;;22.20;10.68;;;;;;;25.94;44.86;98644.03;5051121;28;20129;-63
2021/08/18 04:15:21;;;;;;;19.40;10.13;;;;;;;26.07;44.51;98628.34;5050251;28;20057;-62
2021/08/18 04:17:47;;;;;;;23.02;10.55;;;;;;;26.15;43.86;98632.78;5049180;28;20498;-63
2021/08/18 04:20:13;;;;;;;15.93;10.00;;;;;;;26.25;43.52;98632.19;5050019;28;20128;-63
2021/08/18 04:22:40;;;;;;;21.95;10.75;;;;;;;26.29;43.35;98632.25;5050927;28;20043;-61
2021/08/18 04:25:10;;;;;;;21.95;10.55;;;;;;;26.39;43.08;98622.72;5051193;28;20045;-62
2021/08/18 04:27:38;;;;;;;22.50;10.45;;;;;;;26.45;43.55;98621.28;5049392;28;20394;-63
2021/08/18 04:30:06;;;;;;;20.77;10.30;;;;;;;26.59;43.03;98624.28;5049540;28;20048;-63
2021/08/18 04:32:32;;;;;;;16.35;10.13;;;;;;;26.72;42.72;98625.66;5050688;28;20552;-63
2021/08/18 04:34:58;;;;;;;25.52;10.57;;;;;;;26.76;42.74;98624.91;5049467;28;20068;-62
2021/08/18 04:37:24;;;;;;;23.08;10.45;;;;;;;26.88;42.08;98628.22;5050594;28;20507;-64
2021/08/18 04:39:50;;;;;;;17.67;11.07;;;;;;;26.91;42.23;98621.28;5037128;28;20494;-63
2021/08/18 04:42:16;;;;;;;20.63;10.32;;;;;;;27.00;42.00;98626.47;5053798;28;20137;-63
2021/08/18 04:44:42;;;;;;;22.60;10.52;;;;;;;27.05;41.75;98626.16;5054692;28;20037;-63
2021/08/18 04:47:08;;;;;;;23.77;10.18;;;;;;;27.02;41.97;98632.31;5053146;28;20142;-63
2021/08/18 04:49:34;;;;;;;20.48;9.82;;;;;;;27.00;41.56;98632.69;5054756;28;20040;-63
2021/08/18 04:52:04;;;;;;;17.80;9.82;;;;;;;27.05;42.72;98634.31;5054706;28;20044;-64
2021/08/18 04:54:30;;;;;;;20.88;10.93;;;;;;;27.12;42.82;98635.22;5045679;28;20046;-61
2021/08/18 04:56:56;;;;;;;18.48;9.95;;;;;;;27.04;41.90;98627.31;5034455;28;20040;-60
2021/08/18 04:59:23;;;;;;;19.70;10.00;;;;;;;26.94;41.92;98621.34;5033063;28;20080;-61
2021/08/18 05:01:49;;;;;;;17.63;9.13;;;;;;;26.93;42.06;98630.66;5034633;28;20422;-62
2021/08/18 05:04:15;;;;;;;15.32;9.38;;;;;;;26.91;42.11;98629.44;5034236;28;20068;-64
2021/08/18 05:06:45;;;;;;;19.92;9.93;;;;;;;26.82;42.08;98632.41;5034532;28;20068;-62
2021/08/18 05:09:13;;;;;;;22.98;9.68;;;;;;;26.67;41.95;98628.66;5033805;28;20041;-66
2021/08/18 05:11:46;;;;;;;22.15;9.95;;;;;;;26.50;42.36;98629.16;5032586;28;20561;-64
2021/08/18 05:14:14;;;;;;;19.50;9.73;;;;;;;26.34;42.80;98626.53;5033744;28;20045;-65
2021/08/18 05:16:40;;;;;;;13.82;9.38;;;;;;;26.18;43.16;98626.63;5033929;28;20072;-64
2021/08/18 05:19:06;;;;;;;19.05;9.90;;;;;;;26.17;43.76;98626.97;5034311;28;20064;-64
2021/08/18 05:21:31;;;;;;;19.20;8.80;;;;;;;26.22;43.38;98624.75;5033076;28;20564;-65
2021/08/18 05:24:00;;;;;;;17.80;9.43;;;;;;;26.23;42.96;98630.97;5034034;28;20073;-63
2021/08/18 05:26:26;;;;;;;19.15;9.85;;;;;;;26.22;43.08;98619.31;5034333;28;20080;-64
2021/08/18 05:28:52;;;;;;;17.70;9.13;;;;;;;26.27;42.91;98623.69;5044148;28;20037;-63
2021/08/18 05:31:19;;;;;;;18.52;10.05;;;;;;;26.27;42.85;98615.53;5053371;28;20068;-63
2021/08/18 05:33:46;;;;;;;17.58;8.93;;;;;;;26.24;42.62;98617.03;5051982;28;20033;-64
2021/08/18 05:36:13;;;;;;;15.82;8.80;;;;;;;26.22;42.82;98616.59;5053547;28;20064;-64
2021/08/18 05:38:39;;;;;;;17.88;9.70;;;;;;;26.23;42.63;98610.00;5052357;28;20037;-63
2021/08/18 05:41:05;;;;;;;16.55;9.45;;;;;;;26.20;42.75;98609.97;5051914;28;20045;-63
2021/08/18 05:43:31;;;;;;;19.38;9.38;;;;;;;26.09;42.59;98604.34;5051652;28;20384;-64
2021/08/18 05:45:59;;;;;;;16.05;9.23;;;;;;;26.08;42.45;98613.63;5049234;28;20041;-64
2021/08/18 05:48:29;;;;;;;15.52;9.25;;;;;;;26.09;42.31;98617.94;5047247;28;20082;-66
2021/08/18 05:50:58;;;;;;;19.40;9.77;;;;;;;26.13;42.78;98628.84;5048779;28;20048;-64
2021/08/18 05:53:24;;;;;;;13.80;8.52;;;;;;;26.20;43.74;98632.47;5049646;28;20041;-63
2021/08/18 05:55:51;;;;;;;13.60;9.18;;;;;;;26.26;43.35;98639.19;5050661;28;20052;-63
2021/08/18 05:58:17;;;;;;;18.58;9.43;;;;;;;26.25;43.29;98644.97;5051290;28;20044;-64
2021/08/18 06:00:45;;;;;;;22.35;8.95;;;;;;;26.26;43.73;98631.03;5048494;28;20040;-63
2021/08/18 06:03:11;;;;;;;18.38;9.65;;;;;;;26.36;43.66;98637.81;5048878;28;20087;-63
2021/08/18 06:05:38;;;;;;;14.68;8.90;;;;;;;26.44;44.17;98636.81;5048751;28;20410;-64
2021/08/18 06:08:07;;;;;;;18.85;9.75;;;;;;;26.47;42.89;98638.81;5048530;28;20045;-64
2021/08/18 06:10:34;;;;;;;16.20;9.23;;;;;;;26.41;43.03;98650.31;5050194;28;20041;-62
2021/08/18 06:13:02;;;;;;;17.20;9.40;;;;;;;26.46;42.99;98639.16;5047791;28;20049;-64
2021/08/18 06:15:31;;;;;;;15.40;8.52;;;;;;;26.48;42.94;98634.94;5049441;28;20063;-64
2021/08/18 06:17:58;;;;;;;18.92;9.73;;;;;;;26.52;42.70;98636.94;5049002;28;20047;-63
2021/08/18 06:20:26;;;;;;;15.90;9.40;;;;;;;26.55;43.41;98637.00;5051374;28;20087;-65
2021/08/18 06:22:52;;;;;;;13.57;9.18;;;;;;;26.65;43.77;98620.13;5051001;28;20033;-66
2021/08/18 06:25:18;;;;;;;14.32;8.45;;;;;;;26.78;43.32;98622.63;5047549;28;20049;-63
2021/08/18 06:27:45;;;;;;;15.45;9.02;;;;;;;26.88;43.42;98622.78;5048043;28;20045;-64
2021/08/18 06:30:11;;;;;;;18.88;9.43;;;;;;;26.94;43.15;98625.97;5050342;28;20048;-65
2021/08/18 06:32:38;;;;;;;16.75;9.43;;;;;;;27.03;44.04;98621.09;5030293;28;20041;-64
2021/08/18 06:35:05;;;;;;;23.48;9.60;;;;;;;27.13;42.76;98633.28;5048893;28;20041;-64
2021/08/18 06:37:31;;;;;;;18.73;8.75;;;;;;;27.18;43.21;98630.28;5049916;28;20076;-64
2021/08/18 06:39:59;;;;;;;18.00;8.65;;;;;;;27.28;42.11;98628.84;5048672;28;20094;-64
2021/08/18 06:42:33;;;;;;;20.08;9.05;;;;;;;27.33;42.24;98634.78;5048611;28;20053;-64
2021/08/18 06:44:59;;;;;;;13.15;9.15;;;;;;;27.33;42.09;98628.56;5047761;28;20399;-62
2021/08/18 06:47:26;;;;;;;17.95;9.73;;;;;;;27.29;42.62;98636.63;5048265;28;20119;-64
2021/08/18 06:49:54;;;;;;;17.52;9.25;;;;;;;27.27;42.27;98628.09;5030246;28;20048;-63
2021/08/18 06:52:22;;;;;;;18.23;9.00;;;;;;;27.28;42.48;98634.31;5047657;28;20039;-63
2021/08/18 06:54:48;;;;;;;18.88;8.82;;;;;;;27.33;41.62;98626.59;5047774;28;20465;-62
2021/08/18 06:57:14;;;;;;;12.23;8.25;;;;;;;27.44;41.66;98628.69;5048382;28;20044;-62
2021/08/18 06:59:41;;;;;;;16.73;9.60;;;;;;;27.44;41.90;98620.50;5047733;28;20406;-61
2021/08/18 07:02:10;;;;;;;19.05;8.20;;;;;;;27.46;41.36;98623.66;5047659;28;20033;-63
2021/08/18 07:04:56;;;;;;;15.38;8.32;;;;;;;27.71;41.73;98626.69;5044043;28;20068;-63
2021/08/18 07:07:23;;;;;;;22.52;10.95;;;;;;;27.90;40.69;98623.84;5027901;28;20510;-61
2021/08/18 07:09:50;;;;;;;15.93;8.13;;;;;;;27.96;40.10;98625.09;5044630;28;20057;-63
2021/08/18 07:12:16;;;;;;;15.43;8.50;;;;;;;28.11;41.31;98620.56;5026594;28;20383;-62
2021/08/18 07:14:42;;;;;;;14.82;8.60;;;;;;;28.03;41.01;98619.72;5044929;28;20080;-64
2021/08/18 07:17:08;;;;;;;17.77;8.50;;;;;;;27.98;41.55;98624.72;5044791;28;20132;-62
2021/08/18 07:19:34;;;;;;;16.42;8.85;;;;;;;28.02;42.55;98615.41;5044071;28;20087;-64
2021/08/18 07:22:00;;;;;;;16.85;8.25;;;;;;;28.12;41.85;98618.63;5044969;28;20829;-64
2021/08/18 07:24:26;;;;;;;14.43;9.73;;;;;;;28.12;40.54;98624.06;5043842;28;20146;-63
2021/08/18 07:26:54;;;;;;;17.58;9.32;;;;;;;28.15;40.65;98626.06;5044062;28;20041;-63
2021/08/18 07:29:22;;;;;;;16.48;9.35;;;;;;;28.18;41.01;98612.50;5044686;28;20033;-63
2021/08/18 07:31:51;;;;;;;17.97;9.77;;;;;;;28.25;40.99;98614.50;5043230;28;20041;-62
2021/08/18 07:34:19;;;;;;;19.00;10.02;;;;;;;28.34;40.30;98622.38;5045754;28;20170;-62
2021/08/18 07:36:46;;;;;;;16.77;9.23;;;;;;;28.28;39.71;98619.19;5025923;28;20568;-63
2021/08/18 07:39:21;;;;;;;15.90;9.30;;;;;;;28.18;39.47;98617.94;5014274;28;20037;-63
2021/08/18 07:41:47;;;;;;;16.35;8.45;;;;;;;28.20;38.91;98617.56;5045047;28;20134;-62
2021/08/18 07:44:14;;;;;;;14.30;8.20;;;;;;;28.46;38.98;98613.94;5045716;28;20545;-63
2021/08/18 07:46:40;;;;;;;17.42;8.88;;;;;;;28.83;39.09;98615.81;5047263;28;20040;-63
2021/08/18 07:49:06;;;;;;;16.52;8.70;;;;;;;29.16;37.78;98614.91;5045725;28;20414;-62
2021/08/18 07:51:33;;;;;;;16.85;8.68;;;;;;;29.49;36.51;98615.88;5045356;28;20453;-64
2021/08/18 07:54:02;;;;;;;18.65;8.48;;;;;;;29.57;36.37;98612.78;5045914;28;20040;-62
2021/08/18 07:56:32;;;;;;;16.02;8.52;;;;;;;29.69;36.56;98610.91;5045500;28;20620;-63
2021/08/18 07:58:59;;;;;;;13.60;7.80;;;;;;;29.81;36.72;98616.81;5047609;28;20045;-62
2021/08/18 08:01:26;;;;;;;13.32;8.93;;;;;;;29.86;36.27;98610.19;5045367;28;20139;-63
2021/08/18 08:03:53;;;;;;;16.70;8.00;;;;;;;29.90;36.22;98600.06;5046864;28;20123;-62
2021/08/18 08:06:22;;;;;;;;;;;;;;;30.13;36.64;98607.16;5048065;28;20084;-62
2021/08/18 08:08:50;;;;;;;15.38;8.60;;;;;;;30.29;37.16;98613.06;5047785;28;19920;-64
2021/08/18 08:11:17;;;;;;;21.40;8.88;;;;;;;30.34;37.18;98604.47;5044854;28;20419;-63
2021/08/18 08:13:43;;;;;;;16.40;9.23;;;;;;;30.33;37.31;98611.91;5046407;28;20424;-62
2021/08/18 08:16:09;;;;;;;16.85;9.38;;;;;;;30.29;36.24;98602.13;5046546;28;20061;-63
2021/08/18 08:18:34;;;;;;;14.45;8.93;;;;;;;30.14;36.15;98601.28;5047269;28;20041;-63
2021/08/18 08:21:00;;;;;;;17.65;8.85;;;;;;;30.02;36.35;98598.91;5045710;28;20079;-63
2021/08/18 08:23:26;;;;;;;29.45;9.15;;;;;;;30.05;36.46;98598.91;5044823;28;20072;-64
2021/08/18 08:25:52;;;;;;;16.42;7.70;;;;;;;29.93;36.13;98604.75;5044957;28;20067;-64
2021/08/18 08:28:18;;;;;;;15.13;8.13;;;;;;;29.88;36.19;98591.47;5045553;28;20037;-64
2021/08/18 08:30:48;;;;;;;16.48;8.77;;;;;;;29.90;36.56;98602.00;5045922;28;20037;-64
2021/08/18 08:33:14;;;;;;;15.02;8.50;;;;;;;29.89;36.66;98601.25;5046625;28;20392;-62
2021/08/18 08:35:40;;;;;;;20.45;8.50;;;;;;;29.85;36.61;98603.94;5046280;28;20415;-63
2021/08/18 08:38:06;;;;;;;16.83;8.38;;;;;;;29.88;36.69;98595.00;5046087;28;20033;-64
2021/08/18 08:40:32;;;;;;;25.42;9.85;;;;;;;29.84;37.00;98602.38;5045389;28;20049;-63
2021/08/18 08:43:02;;;;;;;18.48;8.18;;;;;;;29.90;37.52;98594.59;5047424;28;20049;-64
2021/08/18 08:45:29;;;;;;;17.40;8.65;;;;;;;29.94;36.64;98597.31;5045576;28;20076;-64
2021/08/18 08:47:57;;;;;;;14.07;8.98;;;;;;;29.98;36.43;98598.91;5047615;28;20041;-64
2021/08/18 08:50:25;;;;;;;12.95;8.23;;;;;;;29.98;36.56;98593.44;5046808;28;20037;-62
2021/08/18 08:52:55;;;;;;;17.98;8.32;;;;;;;30.02;36.17;98594.22;5044265;28;20048;-64
2021/08/18 08:55:22;;;;;;;17.63;10.50;;;;;;;30.19;35.50;98587.25;5046176;28;20533;-64
2021/08/18 08:57:49;;;;;;;18.15;9.13;;;;;;;30.22;36.01;98588.44;5044905;28;20071;-64
2021/08/18 09:00:17;;;;;;;15.90;8.68;;;;;;;30.28;35.81;98586.91;5046038;28;20106;-63
2021/08/18 09:02:43;;;;;;;13.57;8.23;;;;;;;30.32;35.44;98593.13;5043930;28;20049;-63
2021/08/18 09:05:09;;;;;;;13.10;8.15;;;;;;;30.35;35.22;98584.16;5046851;28;20044;-63
2021/08/18 09:07:37;;;;;;;19.95;8.20;;;;;;;30.32;35.07;98582.19;5042875;28;20041;-63
2021/08/18 09:10:13;;;;;;;13.02;8.60;;;;;;;30.20;34.90;98585.28;5044802;28;20053;-63
2021/08/18 09:12:41;;;;;;;14.93;8.13;;;;;;;29.98;35.39;98579.78;5046281;28;20049;-64
2021/08/18 09:15:17;;;;;;;17.63;8.77;;;;;;;29.93;35.63;98582.91;5047607;28;20049;-62
2021/08/18 09:17:44;;;;;;;14.10;7.93;;;;;;;29.92;35.87;98580.56;5031307;28;20060;-62
2021/08/18 09:20:13;;;;;;;16.92;8.68;;;;;;;29.85;36.90;98579.34;5047283;28;20045;-63
2021/08/18 09:22:53;;;;;;;12.73;8.27;;;;;;;29.81;37.12;98575.84;5046973;28;20037;-62
2021/08/18 09:25:21;;;;;;;15.32;7.93;;;;;;;29.88;36.82;98575.88;5049583;28;20059;-62
2021/08/18 09:27:52;;;;;;;12.75;8.48;;;;;;;29.97;36.76;98572.75;5050134;28;20108;-64
2021/08/18 09:30:27;;;;;;;15.38;8.45;;;;;;;29.96;36.54;98578.59;5050237;28;20049;-64
2021/08/18 09:32:57;;;;;;;14.18;8.20;;;;;;;29.88;36.90;98578.59;5050084;28;20470;-62
2021/08/18 09:35:27;;;;;;;16.52;8.40;;;;;;;29.87;36.95;98576.25;5042716;28;20051;-64
2021/08/18 09:37:57;;;;;;;14.57;8.30;;;;;;;29.83;36.44;98572.72;5031979;28;20033;-63
2021/08/18 09:40:27;;;;;;;13.95;8.18;;;;;;;29.85;36.67;98584.03;5030847;28;20175;-64
2021/08/18 09:43:06;;;;;;;15.88;8.73;;;;;;;29.80;36.64;98573.50;5030029;28;20231;-64
2021/08/18 09:45:33;;;;;;;15.98;8.23;;;;;;;29.81;37.12;98572.31;5031639;28;20256;-64
2021/08/18 09:48:11;;;;;;;14.32;8.70;;;;;;;29.70;36.42;98563.31;5031077;28;20042;-65
2021/08/18 09:50:57;;;;;;;14.70;8.20;;;;;;;29.60;35.79;98568.31;4996864;28;20049;-65
2021/08/18 09:53:25;;;;;;;12.20;7.90;;;;;;;29.65;35.85;98572.69;5011622;28;20041;-63
2021/08/18 09:55:57;;;;;;;13.93;7.57;;;;;;;29.60;36.08;98578.47;5030721;28;20061;-62
2021/08/18 09:58:31;;;;;;;13.80;7.95;;;;;;;29.62;36.17;98576.16;5030597;28;20045;-62
2021/08/18 10:01:10;;;;;;;12.45;7.93;;;;;;;29.66;36.21;98574.22;5031884;28;20079;-62
2021/08/18 10:03:42;;;;;;;12.55;8.30;;;;;;;29.61;35.83;98566.38;5029536;28;20038;-63
2021/08/18 10:06:09;;;;;;;11.38;7.97;;;;;;;29.79;35.67;98569.19;5029096;28;20049;-64
2021/08/18 10:08:41;;;;;;;14.90;8.02;;;;;;;30.09;36.26;98572.41;5030614;28;20052;-63
2021/08/18 10:11:10;;;;;;;13.23;7.65;;;;;;;30.30;35.96;98570.91;5031454;28;20041;-63
2021/08/18 10:13:37;;;;;;;13.30;8.13;;;;;;;30.44;35.70;98559.94;5013993;28;20037;-63
2021/08/18 10:16:06;;;;;;;14.23;8.40;;;;;;;30.44;36.11;98565.41;5032070;28;20111;-63
2021/08/18 10:18:33;;;;;;;15.68;8.45;;;;;;;30.32;36.61;98560.34;5014766;28;20033;-62
2021/08/18 10:21:06;;;;;;;13.73;8.02;;;;;;;30.24;36.43;98562.31;5030865;28;20057;-64
2021/08/18 10:23:42;;;;;;;15.27;8.38;;;;;;;30.17;36.95;98559.50;5030215;28;20046;-64
2021/08/18 10:26:08;;;;;;;15.73;8.50;;;;;;;30.13;37.30;98547.03;5030075;28;20049;-64
2021/08/18 10:29:01;;;;;;;17.52;8.35;;;;;;;30.03;38.45;98545.81;5029461;28;20486;-64
2021/08/18 10:31:46;;;;;;;14.30;9.00;;;;;;;29.94;37.53;98546.19;5029705;28;20426;-63
2021/08/18 10:34:18;;;;;;;16.10;8.77;;;;;;;29.91;37.96;98536.03;5031659;28;20522;-64
2021/08/18 10:36:44;;;;;;;15.13;8.85;;;;;;;29.90;38.17;98539.19;5027916;28;20662;-64
2021/08/18 10:39:26;;;;;;;15.55;8.95;;;;;;;29.88;37.90;98536.81;5029876;28;20041;-65
2021/08/18 10:42:05;;;;;;;11.35;7.97;;;;;;;29.87;37.04;98529.81;5027824;28;20477;-63
2021/08/18 10:44:41;;;;;;;12.18;8.85;;;;;;;29.80;37.41;98530.56;5028345;28;20110;-63
2021/08/18 10:47:16;;;;;;;18.05;8.52;;;;;;;29.77;37.44;98533.31;5029433;28;20052;-63
2021/08/18 10:49:43;;;;;;;10.30;8.07;;;;;;;29.78;36.90;98537.59;5028415;28;20072;-64
2021/08/18 10:52:11;;;;;;;15.05;8.70;;;;;;;29.92;37.19;98528.66;5028029;28;20160;-65
2021/08/18 10:54:44;;;;;;;14.90;8.88;;;;;;;30.04;36.87;98525.53;5028854;28;20045;-64
2021/08/18 10:57:36;;;;;;;12.50;8.77;;;;;;;30.15;36.67;98531.81;5027373;28;20506;-64
2021/08/18 11:00:09;;;;;;;17.55;8.70;;;;;;;30.26;36.22;98521.66;5030060;28;20060;-63
2021/08/18 11:02:51;;;;;;;12.25;8.73;;;;;;;30.39;36.11;98527.53;5031683;28;20048;-63
2021/08/18 11:05:19;;;;;;;13.43;9.07;;;;;;;30.57;35.82;98516.59;5028666;28;20045;-64
2021/08/18 11:08:07;;;;;;;15.18;8.80;;;;;;;30.64;36.08;98524.00;5031466;28;20038;-64
2021/08/18 11:10:38;;;;;;;9.77;8.77;;;;;;;30.72;36.13;98520.88;5027647;28;20052;-64
2021/08/18 11:13:06;;;;;;;13.63;8.27;;;;;;;30.74;36.58;98510.31;5028288;28;20120;-64
2021/08/18 11:15:32;;;;;;;16.70;9.13;;;;;;;30.80;36.40;98513.47;5027689;28;20531;-65
2021/08/18 11:17:58;;;;;;;13.65;9.02;;;;;;;30.85;35.87;98506.78;5029161;28;20076;-65
2021/08/18 11:20:30;;;;;;;16.42;9.50;;;;;;;30.75;36.54;98508.34;5028414;28;20045;-63
2021/08/18 11:22:58;;;;;;;11.20;8.48;;;;;;;30.52;36.53;98508.78;5029065;28;20538;-64
2021/08/18 11:25:25;;;;;;;13.45;9.30;;;;;;;30.33;36.63;98510.75;5029274;28;20609;-63
2021/08/18 11:27:53;;;;;;;13.77;9.07;;;;;;;30.19;36.81;98502.50;5028813;28;20100;-64